createdAt,value
2022-11-03T22:43:58.602Z,11.92
2022-11-03T22:44:57.289Z,11.50
2022-11-03T22:45:57.287Z,11.22
2022-11-03T22:46:57.271Z,11.07
2022-11-03T22:47:57.723Z,10.98
2022-11-03T22:48:57.337Z,10.93
2022-11-03T22:49:57.391Z,10.90
2022-11-03T22:50:57.231Z,10.89
2022-11-03T22:51:57.221Z,10.89
2022-11-03T22:52:57.216Z,10.88
2022-11-03T22:53:57.197Z,10.88
2022-11-03T22:54:57.554Z,10.88
2022-11-03T22:55:57.176Z,10.88
2022-11-03T22:56:57.172Z,10.88
2022-11-03T22:57:57.170Z,10.88
2022-11-03T22:58:57.151Z,10.88
2022-11-03T22:59:57.121Z,10.87
2022-11-03T23:00:57.510Z,10.86
2022-11-03T23:01:57.215Z,10.86
2022-11-03T23:02:57.101Z,10.85
2022-11-03T23:03:57.097Z,10.85
2022-11-03T23:04:57.081Z,10.85
2022-11-03T23:05:57.069Z,10.85
2022-11-03T23:06:57.337Z,10.84
2022-11-03T23:07:57.049Z,10.83
2022-11-03T23:08:57.040Z,10.83
2022-11-03T23:09:57.043Z,10.82
2022-11-03T23:10:57.036Z,10.82
2022-11-03T23:11:57.010Z,10.81
2022-11-03T23:12:57.212Z,10.81
2022-11-03T23:13:56.991Z,10.81
2022-11-03T23:14:56.986Z,10.81
2022-11-03T23:15:56.959Z,10.82
2022-11-03T23:16:56.969Z,10.82
2022-11-03T23:17:56.944Z,10.83
2022-11-03T23:18:57.150Z,10.83
2022-11-03T23:19:56.921Z,10.84
2022-11-03T23:20:56.916Z,10.85
2022-11-03T23:21:56.900Z,10.85
2022-11-03T23:22:56.891Z,10.86
2022-11-03T23:23:56.881Z,10.86
2022-11-03T23:24:57.023Z,10.86
2022-11-03T23:25:57.571Z,10.87
2022-11-03T23:26:56.851Z,10.87
2022-11-03T23:27:56.841Z,10.87
2022-11-03T23:28:56.839Z,10.87
2022-11-03T23:29:57.001Z,10.86
2022-11-03T23:30:56.807Z,10.85
2022-11-03T23:31:56.806Z,10.84
2022-11-03T23:32:56.941Z,10.82
2022-11-03T23:33:56.767Z,10.80
2022-11-03T23:34:56.761Z,10.79
2022-11-03T23:35:56.764Z,10.78
2022-11-03T23:36:56.740Z,10.76
2022-11-03T23:37:56.720Z,10.74
2022-11-03T23:38:56.919Z,10.72
2022-11-03T23:39:56.717Z,10.69
2022-11-03T23:40:56.689Z,10.67
2022-11-03T23:41:56.752Z,10.65
2022-11-03T23:42:56.738Z,10.63
2022-11-03T23:43:56.671Z,10.61
2022-11-03T23:44:56.822Z,10.59
2022-11-03T23:45:56.629Z,10.58
2022-11-03T23:46:56.639Z,10.56
2022-11-03T23:47:56.779Z,10.55
2022-11-03T23:48:56.631Z,10.54
2022-11-03T23:49:56.613Z,10.54
2022-11-03T23:50:56.606Z,10.54
2022-11-03T23:51:56.594Z,10.54
2022-11-03T23:52:56.586Z,10.53
2022-11-03T23:53:56.850Z,10.53
2022-11-03T23:54:56.589Z,10.53
2022-11-03T23:55:56.587Z,10.52
2022-11-03T23:56:56.556Z,10.51
2022-11-03T23:57:56.509Z,10.50
2022-11-03T23:58:56.512Z,10.49
2022-11-03T23:59:56.668Z,10.49
